sensor_id;sensor_type;location;lat;lon;timestamp;pressure;altitude;pressure_sealevel;temperature
19644;BMP180;9970;-36.854;174.870;2023-01-30T00:00:25;101492.00;;;20.70
19644;BMP180;9970;-36.854;174.870;2023-01-30T00:02:58;101486.00;;;20.70
19644;BMP180;9970;-36.854;174.870;2023-01-30T00:05:31;101489.00;;;20.70
19644;BMP180;9970;-36.854;174.870;2023-01-30T00:08:04;101484.00;;;20.70
19644;BMP180;9970;-36.854;174.870;2023-01-30T00:10:37;101490.00;;;20.70
19644;BMP180;9970;-36.854;174.870;2023-01-30T00:13:15;101489.00;;;20.70
19644;BMP180;9970;-36.854;174.870;2023-01-30T00:15:48;101493.00;;;20.70
19644;BMP180;9970;-36.854;174.870;2023-01-30T00:18:21;101484.00;;;20.70
19644;BMP180;9970;-36.854;174.870;2023-01-30T00:20:59;101483.00;;;20.70
19644;BMP180;9970;-36.854;174.870;2023-01-30T00:23:32;101486.00;;;20.70
19644;BMP180;9970;-36.854;174.870;2023-01-30T00:26:06;101478.00;;;20.70
19644;BMP180;9970;-36.854;174.870;2023-01-30T00:28:39;101490.00;;;20.70
19644;BMP180;9970;-36.854;174.870;2023-01-30T00:31:12;101496.00;;;20.70
19644;BMP180;9970;-36.854;174.870;2023-01-30T00:33:45;101493.00;;;20.70
19644;BMP180;9970;-36.854;174.870;2023-01-30T00:36:18;101494.00;;;20.70
19644;BMP180;9970;-36.854;174.870;2023-01-30T00:38:51;101495.00;;;20.70
19644;BMP180;9970;-36.854;174.870;2023-01-30T00:41:24;101491.00;;;20.70
19644;BMP180;9970;-36.854;174.870;2023-01-30T00:43:58;101488.00;;;20.70
19644;BMP180;9970;-36.854;174.870;2023-01-30T00:46:49;101491.00;;;20.60
19644;BMP180;9970;-36.854;174.870;2023-01-30T00:49:32;101488.00;;;20.60
19644;BMP180;9970;-36.854;174.870;2023-01-30T00:52:05;101491.00;;;20.60
19644;BMP180;9970;-36.854;174.870;2023-01-30T00:54:38;101486.00;;;20.60
19644;BMP180;9970;-36.854;174.870;2023-01-30T00:57:21;101484.00;;;20.60
19644;BMP180;9970;-36.854;174.870;2023-01-30T00:59:48;101479.00;;;20.60
19644;BMP180;9970;-36.854;174.870;2023-01-30T01:02:21;101477.00;;;20.60
19644;BMP180;9970;-36.854;174.870;2023-01-30T01:04:54;101483.00;;;20.60
19644;BMP180;9970;-36.854;174.870;2023-01-30T01:07:27;101483.00;;;20.60
19644;BMP180;9970;-36.854;174.870;2023-01-30T01:10:04;101489.00;;;20.60
19644;BMP180;9970;-36.854;174.870;2023-01-30T01:12:38;101483.00;;;20.60
19644;BMP180;9970;-36.854;174.870;2023-01-30T01:15:13;101490.00;;;20.70
19644;BMP180;9970;-36.854;174.870;2023-01-30T01:17:47;101475.00;;;20.60
19644;BMP180;9970;-36.854;174.870;2023-01-30T01:20:21;101469.00;;;20.60
19644;BMP180;9970;-36.854;174.870;2023-01-30T01:22:54;101473.00;;;20.60
19644;BMP180;9970;-36.854;174.870;2023-01-30T01:25:28;101466.00;;;20.60
19644;BMP180;9970;-36.854;174.870;2023-01-30T01:28:01;101462.00;;;20.60
19644;BMP180;9970;-36.854;174.870;2023-01-30T01:30:34;101461.00;;;20.60
19644;BMP180;9970;-36.854;174.870;2023-01-30T01:33:07;101464.00;;;20.60
19644;BMP180;9970;-36.854;174.870;2023-01-30T01:35:43;101456.00;;;20.60
19644;BMP180;9970;-36.854;174.870;2023-01-30T01:38:22;101455.00;;;20.50
19644;BMP180;9970;-36.854;174.870;2023-01-30T01:40:55;101450.00;;;20.50
19644;BMP180;9970;-36.854;174.870;2023-01-30T01:43:37;101445.00;;;20.50
19644;BMP180;9970;-36.854;174.870;2023-01-30T01:46:21;101437.00;;;20.50
19644;BMP180;9970;-36.854;174.870;2023-01-30T01:48:55;101442.00;;;20.50
19644;BMP180;9970;-36.854;174.870;2023-01-30T01:51:36;101439.00;;;20.50
19644;BMP180;9970;-36.854;174.870;2023-01-30T01:54:16;101437.00;;;20.50
19644;BMP180;9970;-36.854;174.870;2023-01-30T01:56:49;101438.00;;;20.50
19644;BMP180;9970;-36.854;174.870;2023-01-30T01:59:27;101424.00;;;20.50
19644;BMP180;9970;-36.854;174.870;2023-01-30T02:02:02;101428.00;;;20.50
19644;BMP180;9970;-36.854;174.870;2023-01-30T02:04:37;101428.00;;;20.50
19644;BMP180;9970;-36.854;174.870;2023-01-30T02:07:33;101422.00;;;20.50
19644;BMP180;9970;-36.854;174.870;2023-01-30T02:10:05;101419.00;;;20.50
19644;BMP180;9970;-36.854;174.870;2023-01-30T02:12:39;101419.00;;;20.50
19644;BMP180;9970;-36.854;174.870;2023-01-30T02:15:12;101422.00;;;20.50
19644;BMP180;9970;-36.854;174.870;2023-01-30T02:17:46;101403.00;;;20.50
19644;BMP180;9970;-36.854;174.870;2023-01-30T02:23:24;101399.00;;;20.50
19644;BMP180;9970;-36.854;174.870;2023-01-30T02:34:43;101393.00;;;20.40
19644;BMP180;9970;-36.854;174.870;2023-01-30T02:37:42;101388.00;;;20.40
19644;BMP180;9970;-36.854;174.870;2023-01-30T02:40:35;101389.00;;;20.40
19644;BMP180;9970;-36.854;174.870;2023-01-30T02:46:24;101381.00;;;20.40
19644;BMP180;9970;-36.854;174.870;2023-01-30T02:49:11;101376.00;;;20.40
19644;BMP180;9970;-36.854;174.870;2023-01-30T02:51:41;101368.00;;;20.40
19644;BMP180;9970;-36.854;174.870;2023-01-30T02:54:12;101362.00;;;20.40
19644;BMP180;9970;-36.854;174.870;2023-01-30T02:56:50;101362.00;;;20.40
19644;BMP180;9970;-36.854;174.870;2023-01-30T02:59:23;101361.00;;;20.40
19644;BMP180;9970;-36.854;174.870;2023-01-30T03:02:13;101356.00;;;20.40
19644;BMP180;9970;-36.854;174.870;2023-01-30T03:04:55;101357.00;;;20.40
19644;BMP180;9970;-36.854;174.870;2023-01-30T03:07:37;101369.00;;;20.40
19644;BMP180;9970;-36.854;174.870;2023-01-30T03:10:33;101362.00;;;20.40
19644;BMP180;9970;-36.854;174.870;2023-01-30T03:13:19;101360.00;;;20.30
19644;BMP180;9970;-36.854;174.870;2023-01-30T03:16:02;101377.00;;;20.30
19644;BMP180;9970;-36.854;174.870;2023-01-30T03:18:39;101347.00;;;20.30
19644;BMP180;9970;-36.854;174.870;2023-01-30T03:21:11;101357.00;;;20.30
19644;BMP180;9970;-36.854;174.870;2023-01-30T03:23:45;101356.00;;;20.30
19644;BMP180;9970;-36.854;174.870;2023-01-30T03:26:24;101348.00;;;20.30
19644;BMP180;9970;-36.854;174.870;2023-01-30T03:28:53;101355.00;;;20.30
19644;BMP180;9970;-36.854;174.870;2023-01-30T03:31:26;101367.00;;;20.30
19644;BMP180;9970;-36.854;174.870;2023-01-30T03:33:59;101362.00;;;20.30
19644;BMP180;9970;-36.854;174.870;2023-01-30T03:36:32;101366.00;;;20.30
19644;BMP180;9970;-36.854;174.870;2023-01-30T03:39:06;101369.00;;;20.20
19644;BMP180;9970;-36.854;174.870;2023-01-30T03:41:42;101358.00;;;20.20
19644;BMP180;9970;-36.854;174.870;2023-01-30T03:44:13;101356.00;;;20.20
19644;BMP180;9970;-36.854;174.870;2023-01-30T03:46:46;101345.00;;;20.20
19644;BMP180;9970;-36.854;174.870;2023-01-30T03:49:19;101356.00;;;20.20
19644;BMP180;9970;-36.854;174.870;2023-01-30T03:51:52;101345.00;;;20.20
19644;BMP180;9970;-36.854;174.870;2023-01-30T03:54:24;101344.00;;;20.20
19644;BMP180;9970;-36.854;174.870;2023-01-30T03:56:57;101339.00;;;20.20
19644;BMP180;9970;-36.854;174.870;2023-01-30T03:59:30;101325.00;;;20.20
19644;BMP180;9970;-36.854;174.870;2023-01-30T04:02:03;101336.00;;;20.20
19644;BMP180;9970;-36.854;174.870;2023-01-30T04:04:36;101316.00;;;20.20
19644;BMP180;9970;-36.854;174.870;2023-01-30T04:07:09;101317.00;;;20.20
19644;BMP180;9970;-36.854;174.870;2023-01-30T04:09:42;101313.00;;;20.20
19644;BMP180;9970;-36.854;174.870;2023-01-30T04:12:14;101320.00;;;20.20
19644;BMP180;9970;-36.854;174.870;2023-01-30T04:14:48;101314.00;;;20.20
19644;BMP180;9970;-36.854;174.870;2023-01-30T04:17:21;101317.00;;;20.20
19644;BMP180;9970;-36.854;174.870;2023-01-30T04:19:54;101310.00;;;20.20
19644;BMP180;9970;-36.854;174.870;2023-01-30T04:22:27;101312.00;;;20.20
19644;BMP180;9970;-36.854;174.870;2023-01-30T04:25:00;101317.00;;;20.20
19644;BMP180;9970;-36.854;174.870;2023-01-30T04:27:33;101317.00;;;20.20
19644;BMP180;9970;-36.854;174.870;2023-01-30T04:30:07;101317.00;;;20.20
19644;BMP180;9970;-36.854;174.870;2023-01-30T04:32:40;101312.00;;;20.30
19644;BMP180;9970;-36.854;174.870;2023-01-30T04:35:13;101314.00;;;20.30
19644;BMP180;9970;-36.854;174.870;2023-01-30T04:37:46;101312.00;;;20.30
19644;BMP180;9970;-36.854;174.870;2023-01-30T04:40:19;101318.00;;;20.30
19644;BMP180;9970;-36.854;174.870;2023-01-30T04:42:53;101311.00;;;20.30
19644;BMP180;9970;-36.854;174.870;2023-01-30T04:45:25;101314.00;;;20.30
19644;BMP180;9970;-36.854;174.870;2023-01-30T04:48:01;101316.00;;;20.30
19644;BMP180;9970;-36.854;174.870;2023-01-30T04:50:33;101314.00;;;20.30
19644;BMP180;9970;-36.854;174.870;2023-01-30T04:53:06;101314.00;;;20.30
19644;BMP180;9970;-36.854;174.870;2023-01-30T04:55:40;101306.00;;;20.30
19644;BMP180;9970;-36.854;174.870;2023-01-30T05:03:57;101320.00;;;20.30
19644;BMP180;9970;-36.854;174.870;2023-01-30T05:06:31;101306.00;;;20.30
19644;BMP180;9970;-36.854;174.870;2023-01-30T05:09:04;101308.00;;;20.30
19644;BMP180;9970;-36.854;174.870;2023-01-30T05:11:37;101305.00;;;20.30
19644;BMP180;9970;-36.854;174.870;2023-01-30T05:14:10;101320.00;;;20.30
19644;BMP180;9970;-36.854;174.870;2023-01-30T05:16:44;101321.00;;;20.30
19644;BMP180;9970;-36.854;174.870;2023-01-30T05:19:17;101316.00;;;20.40
19644;BMP180;9970;-36.854;174.870;2023-01-30T05:21:50;101323.00;;;20.40
19644;BMP180;9970;-36.854;174.870;2023-01-30T05:24:23;101324.00;;;20.40
19644;BMP180;9970;-36.854;174.870;2023-01-30T05:26:56;101319.00;;;20.40
19644;BMP180;9970;-36.854;174.870;2023-01-30T05:29:29;101316.00;;;20.40
19644;BMP180;9970;-36.854;174.870;2023-01-30T05:32:02;101310.00;;;20.40
19644;BMP180;9970;-36.854;174.870;2023-01-30T05:34:35;101309.00;;;20.40
19644;BMP180;9970;-36.854;174.870;2023-01-30T05:37:08;101318.00;;;20.40
19644;BMP180;9970;-36.854;174.870;2023-01-30T05:39:41;101307.00;;;20.30
19644;BMP180;9970;-36.854;174.870;2023-01-30T05:42:14;101316.00;;;20.30
19644;BMP180;9970;-36.854;174.870;2023-01-30T05:44:47;101319.00;;;20.30
19644;BMP180;9970;-36.854;174.870;2023-01-30T05:47:20;101324.00;;;20.40
19644;BMP180;9970;-36.854;174.870;2023-01-30T05:49:58;101335.00;;;20.40
19644;BMP180;9970;-36.854;174.870;2023-01-30T05:52:31;101332.00;;;20.30
19644;BMP180;9970;-36.854;174.870;2023-01-30T05:55:04;101325.00;;;20.40
19644;BMP180;9970;-36.854;174.870;2023-01-30T05:57:37;101327.00;;;20.30
19644;BMP180;9970;-36.854;174.870;2023-01-30T06:00:11;101325.00;;;20.40
19644;BMP180;9970;-36.854;174.870;2023-01-30T06:02:44;101335.00;;;20.30
19644;BMP180;9970;-36.854;174.870;2023-01-30T06:05:16;101330.00;;;20.30
19644;BMP180;9970;-36.854;174.870;2023-01-30T06:07:49;101332.00;;;20.30
19644;BMP180;9970;-36.854;174.870;2023-01-30T06:10:22;101330.00;;;20.30
19644;BMP180;9970;-36.854;174.870;2023-01-30T06:12:55;101318.00;;;20.30
19644;BMP180;9970;-36.854;174.870;2023-01-30T06:15:31;101330.00;;;20.30
19644;BMP180;9970;-36.854;174.870;2023-01-30T06:18:05;101335.00;;;20.30
19644;BMP180;9970;-36.854;174.870;2023-01-30T06:20:38;101333.00;;;20.40
19644;BMP180;9970;-36.854;174.870;2023-01-30T06:23:10;101329.00;;;20.30
19644;BMP180;9970;-36.854;174.870;2023-01-30T06:25:47;101332.00;;;20.30
19644;BMP180;9970;-36.854;174.870;2023-01-30T06:28:23;101332.00;;;20.30
19644;BMP180;9970;-36.854;174.870;2023-01-30T06:30:57;101332.00;;;20.30
19644;BMP180;9970;-36.854;174.870;2023-01-30T06:33:33;101323.00;;;20.30
19644;BMP180;9970;-36.854;174.870;2023-01-30T06:36:07;101325.00;;;20.30
19644;BMP180;9970;-36.854;174.870;2023-01-30T06:38:44;101326.00;;;20.20
19644;BMP180;9970;-36.854;174.870;2023-01-30T06:41:17;101330.00;;;20.30
19644;BMP180;9970;-36.854;174.870;2023-01-30T06:43:50;101341.00;;;20.30
19644;BMP180;9970;-36.854;174.870;2023-01-30T06:46:22;101324.00;;;20.30
19644;BMP180;9970;-36.854;174.870;2023-01-30T06:48:56;101332.00;;;20.30
19644;BMP180;9970;-36.854;174.870;2023-01-30T06:51:28;101335.00;;;20.30
19644;BMP180;9970;-36.854;174.870;2023-01-30T06:54:02;101333.00;;;20.30
19644;BMP180;9970;-36.854;174.870;2023-01-30T06:56:35;101336.00;;;20.40
19644;BMP180;9970;-36.854;174.870;2023-01-30T06:59:08;101331.00;;;20.30
19644;BMP180;9970;-36.854;174.870;2023-01-30T07:01:41;101327.00;;;20.40
19644;BMP180;9970;-36.854;174.870;2023-01-30T07:04:19;101333.00;;;20.40
19644;BMP180;9970;-36.854;174.870;2023-01-30T07:06:51;101327.00;;;20.40
19644;BMP180;9970;-36.854;174.870;2023-01-30T07:09:24;101329.00;;;20.40
19644;BMP180;9970;-36.854;174.870;2023-01-30T07:11:58;101333.00;;;20.40
19644;BMP180;9970;-36.854;174.870;2023-01-30T07:14:30;101331.00;;;20.30
19644;BMP180;9970;-36.854;174.870;2023-01-30T07:17:03;101331.00;;;20.30
19644;BMP180;9970;-36.854;174.870;2023-01-30T07:19:37;101328.00;;;20.30
19644;BMP180;9970;-36.854;174.870;2023-01-30T07:22:10;101327.00;;;20.30
19644;BMP180;9970;-36.854;174.870;2023-01-30T07:24:43;101334.00;;;20.30
19644;BMP180;9970;-36.854;174.870;2023-01-30T07:27:16;101331.00;;;20.30
19644;BMP180;9970;-36.854;174.870;2023-01-30T07:29:49;101343.00;;;20.30
19644;BMP180;9970;-36.854;174.870;2023-01-30T07:32:22;101331.00;;;20.30
19644;BMP180;9970;-36.854;174.870;2023-01-30T07:34:55;101333.00;;;20.30
19644;BMP180;9970;-36.854;174.870;2023-01-30T07:37:28;101335.00;;;20.30
19644;BMP180;9970;-36.854;174.870;2023-01-30T07:40:01;101339.00;;;20.30
19644;BMP180;9970;-36.854;174.870;2023-01-30T07:42:34;101343.00;;;20.30
19644;BMP180;9970;-36.854;174.870;2023-01-30T07:45:07;101335.00;;;20.30
19644;BMP180;9970;-36.854;174.870;2023-01-30T07:47:40;101346.00;;;20.30
19644;BMP180;9970;-36.854;174.870;2023-01-30T07:50:13;101334.00;;;20.30
19644;BMP180;9970;-36.854;174.870;2023-01-30T07:52:47;101339.00;;;20.30
19644;BMP180;9970;-36.854;174.870;2023-01-30T07:55:20;101347.00;;;20.30
19644;BMP180;9970;-36.854;174.870;2023-01-30T07:57:52;101345.00;;;20.30
19644;BMP180;9970;-36.854;174.870;2023-01-30T08:00:26;101355.00;;;20.30
19644;BMP180;9970;-36.854;174.870;2023-01-30T08:03:00;101347.00;;;20.30
19644;BMP180;9970;-36.854;174.870;2023-01-30T08:05:33;101348.00;;;20.30
19644;BMP180;9970;-36.854;174.870;2023-01-30T08:08:05;101356.00;;;20.30
19644;BMP180;9970;-36.854;174.870;2023-01-30T08:10:38;101349.00;;;20.30
19644;BMP180;9970;-36.854;174.870;2023-01-30T08:13:11;101345.00;;;20.30
19644;BMP180;9970;-36.854;174.870;2023-01-30T08:15:44;101344.00;;;20.30
19644;BMP180;9970;-36.854;174.870;2023-01-30T08:18:17;101357.00;;;20.30
19644;BMP180;9970;-36.854;174.870;2023-01-30T08:20:50;101355.00;;;20.30
19644;BMP180;9970;-36.854;174.870;2023-01-30T08:23:23;101348.00;;;20.30
19644;BMP180;9970;-36.854;174.870;2023-01-30T08:25:57;101365.00;;;20.30
19644;BMP180;9970;-36.854;174.870;2023-01-30T08:28:30;101370.00;;;20.30
19644;BMP180;9970;-36.854;174.870;2023-01-30T08:31:07;101370.00;;;20.30
19644;BMP180;9970;-36.854;174.870;2023-01-30T08:33:37;101382.00;;;20.30
19644;BMP180;9970;-36.854;174.870;2023-01-30T08:36:10;101380.00;;;20.30
19644;BMP180;9970;-36.854;174.870;2023-01-30T08:38:43;101388.00;;;20.30
19644;BMP180;9970;-36.854;174.870;2023-01-30T08:41:18;101391.00;;;20.20
19644;BMP180;9970;-36.854;174.870;2023-01-30T08:43:51;101379.00;;;20.20
19644;BMP180;9970;-36.854;174.870;2023-01-30T08:46:24;101400.00;;;20.20
19644;BMP180;9970;-36.854;174.870;2023-01-30T08:48:57;101398.00;;;20.20
19644;BMP180;9970;-36.854;174.870;2023-01-30T08:51:30;101393.00;;;20.20
19644;BMP180;9970;-36.854;174.870;2023-01-30T08:54:03;101394.00;;;20.20
19644;BMP180;9970;-36.854;174.870;2023-01-30T08:56:37;101388.00;;;20.20
19644;BMP180;9970;-36.854;174.870;2023-01-30T08:59:10;101383.00;;;20.20
19644;BMP180;9970;-36.854;174.870;2023-01-30T09:01:43;101388.00;;;20.20
19644;BMP180;9970;-36.854;174.870;2023-01-30T09:04:16;101392.00;;;20.20
19644;BMP180;9970;-36.854;174.870;2023-01-30T09:06:49;101386.00;;;20.20
19644;BMP180;9970;-36.854;174.870;2023-01-30T09:09:22;101395.00;;;20.20
19644;BMP180;9970;-36.854;174.870;2023-01-30T09:11:54;101390.00;;;20.20
19644;BMP180;9970;-36.854;174.870;2023-01-30T09:14:30;101393.00;;;20.20
19644;BMP180;9970;-36.854;174.870;2023-01-30T09:17:05;101401.00;;;20.20
19644;BMP180;9970;-36.854;174.870;2023-01-30T09:19:38;101391.00;;;20.20
19644;BMP180;9970;-36.854;174.870;2023-01-30T09:22:11;101397.00;;;20.20
19644;BMP180;9970;-36.854;174.870;2023-01-30T09:24:48;101389.00;;;20.20
19644;BMP180;9970;-36.854;174.870;2023-01-30T09:27:21;101386.00;;;20.20
19644;BMP180;9970;-36.854;174.870;2023-01-30T09:29:54;101382.00;;;20.20
19644;BMP180;9970;-36.854;174.870;2023-01-30T09:32:27;101388.00;;;20.20
19644;BMP180;9970;-36.854;174.870;2023-01-30T09:35:00;101381.00;;;20.30
19644;BMP180;9970;-36.854;174.870;2023-01-30T09:37:33;101382.00;;;20.30
19644;BMP180;9970;-36.854;174.870;2023-01-30T09:40:08;101377.00;;;20.30
19644;BMP180;9970;-36.854;174.870;2023-01-30T09:54:02;101368.00;;;20.30
19644;BMP180;9970;-36.854;174.870;2023-01-30T09:56:33;101375.00;;;20.30
19644;BMP180;9970;-36.854;174.870;2023-01-30T09:59:09;101375.00;;;20.30
19644;BMP180;9970;-36.854;174.870;2023-01-30T10:04:30;101375.00;;;20.30
19644;BMP180;9970;-36.854;174.870;2023-01-30T10:13:06;101369.00;;;20.40
19644;BMP180;9970;-36.854;174.870;2023-01-30T10:21:19;101373.00;;;20.40
19644;BMP180;9970;-36.854;174.870;2023-01-30T10:26:31;101366.00;;;20.40
19644;BMP180;9970;-36.854;174.870;2023-01-30T10:29:06;101355.00;;;20.40
19644;BMP180;9970;-36.854;174.870;2023-01-30T10:34:25;101372.00;;;20.40
19644;BMP180;9970;-36.854;174.870;2023-01-30T10:37:13;101360.00;;;20.40
19644;BMP180;9970;-36.854;174.870;2023-01-30T10:43:05;101356.00;;;20.50
19644;BMP180;9970;-36.854;174.870;2023-01-30T10:45:53;101350.00;;;20.50
19644;BMP180;9970;-36.854;174.870;2023-01-30T10:59:40;101345.00;;;20.40
19644;BMP180;9970;-36.854;174.870;2023-01-30T11:02:18;101339.00;;;20.40
19644;BMP180;9970;-36.854;174.870;2023-01-30T11:04:59;101347.00;;;20.50
19644;BMP180;9970;-36.854;174.870;2023-01-30T11:07:34;101349.00;;;20.40
19644;BMP180;9970;-36.854;174.870;2023-01-30T11:10:17;101349.00;;;20.40
19644;BMP180;9970;-36.854;174.870;2023-01-30T11:13:09;101337.00;;;20.50
19644;BMP180;9970;-36.854;174.870;2023-01-30T11:15:45;101338.00;;;20.50
19644;BMP180;9970;-36.854;174.870;2023-01-30T11:18:20;101332.00;;;20.50
19644;BMP180;9970;-36.854;174.870;2023-01-30T11:21:07;101337.00;;;20.50
19644;BMP180;9970;-36.854;174.870;2023-01-30T11:23:43;101327.00;;;20.50
19644;BMP180;9970;-36.854;174.870;2023-01-30T11:26:23;101340.00;;;20.50
19644;BMP180;9970;-36.854;174.870;2023-01-30T11:28:58;101334.00;;;20.50
19644;BMP180;9970;-36.854;174.870;2023-01-30T11:31:31;101336.00;;;20.50
19644;BMP180;9970;-36.854;174.870;2023-01-30T11:34:12;101338.00;;;20.50
19644;BMP180;9970;-36.854;174.870;2023-01-30T11:36:45;101337.00;;;20.50
19644;BMP180;9970;-36.854;174.870;2023-01-30T11:39:20;101332.00;;;20.50
19644;BMP180;9970;-36.854;174.870;2023-01-30T11:41:58;101332.00;;;20.50
19644;BMP180;9970;-36.854;174.870;2023-01-30T11:44:37;101328.00;;;20.50
19644;BMP180;9970;-36.854;174.870;2023-01-30T11:47:19;101320.00;;;20.50
19644;BMP180;9970;-36.854;174.870;2023-01-30T11:49:47;101319.00;;;20.50
19644;BMP180;9970;-36.854;174.870;2023-01-30T11:52:27;101310.00;;;20.50
19644;BMP180;9970;-36.854;174.870;2023-01-30T11:55:06;101310.00;;;20.50
19644;BMP180;9970;-36.854;174.870;2023-01-30T11:57:42;101319.00;;;20.50
19644;BMP180;9970;-36.854;174.870;2023-01-30T12:00:23;101307.00;;;20.50
19644;BMP180;9970;-36.854;174.870;2023-01-30T12:02:57;101311.00;;;20.50
19644;BMP180;9970;-36.854;174.870;2023-01-30T12:05:33;101311.00;;;20.50
19644;BMP180;9970;-36.854;174.870;2023-01-30T12:10:53;101311.00;;;20.50
19644;BMP180;9970;-36.854;174.870;2023-01-30T12:13:37;101302.00;;;20.50
19644;BMP180;9970;-36.854;174.870;2023-01-30T12:19:05;101292.00;;;20.50
19644;BMP180;9970;-36.854;174.870;2023-01-30T12:24:30;101294.00;;;20.50
19644;BMP180;9970;-36.854;174.870;2023-01-30T12:32:24;101274.00;;;20.50
19644;BMP180;9970;-36.854;174.870;2023-01-30T12:34:56;101267.00;;;20.50
19644;BMP180;9970;-36.854;174.870;2023-01-30T12:38:12;101270.00;;;20.50
19644;BMP180;9970;-36.854;174.870;2023-01-30T12:40:45;101263.00;;;20.50
19644;BMP180;9970;-36.854;174.870;2023-01-30T13:01:15;101264.00;;;20.50
19644;BMP180;9970;-36.854;174.870;2023-01-30T13:15:21;101265.00;;;20.50
19644;BMP180;9970;-36.854;174.870;2023-01-30T13:21:19;101250.00;;;20.60
19644;BMP180;9970;-36.854;174.870;2023-01-30T13:26:37;101258.00;;;20.50
19644;BMP180;9970;-36.854;174.870;2023-01-30T13:29:30;101260.00;;;20.50
19644;BMP180;9970;-36.854;174.870;2023-01-30T13:32:04;101260.00;;;20.60
19644;BMP180;9970;-36.854;174.870;2023-01-30T13:34:45;101246.00;;;20.60
19644;BMP180;9970;-36.854;174.870;2023-01-30T13:37:18;101244.00;;;20.60
19644;BMP180;9970;-36.854;174.870;2023-01-30T13:40:20;101247.00;;;20.60
19644;BMP180;9970;-36.854;174.870;2023-01-30T13:43:40;101238.00;;;20.60
19644;BMP180;9970;-36.854;174.870;2023-01-30T13:45:23;101238.00;;;20.60
19644;BMP180;9970;-36.854;174.870;2023-01-30T13:48:15;101225.00;;;20.60
19644;BMP180;9970;-36.854;174.870;2023-01-30T13:57:05;101228.00;;;20.60
19644;BMP180;9970;-36.854;174.870;2023-01-30T14:02:18;101230.00;;;20.60
19644;BMP180;9970;-36.854;174.870;2023-01-30T14:04:51;101218.00;;;20.60
19644;BMP180;9970;-36.854;174.870;2023-01-30T14:07:40;101210.00;;;20.60
19644;BMP180;9970;-36.854;174.870;2023-01-30T14:10:16;101201.00;;;20.60
19644;BMP180;9970;-36.854;174.870;2023-01-30T14:12:51;101195.00;;;20.60
19644;BMP180;9970;-36.854;174.870;2023-01-30T14:15:25;101188.00;;;20.60
19644;BMP180;9970;-36.854;174.870;2023-01-30T14:18:03;101185.00;;;20.60
19644;BMP180;9970;-36.854;174.870;2023-01-30T14:20:43;101184.00;;;20.60
19644;BMP180;9970;-36.854;174.870;2023-01-30T14:23:24;101181.00;;;20.60
19644;BMP180;9970;-36.854;174.870;2023-01-30T14:25:58;101179.00;;;20.60
19644;BMP180;9970;-36.854;174.870;2023-01-30T14:31:06;101174.00;;;20.60
19644;BMP180;9970;-36.854;174.870;2023-01-30T14:33:50;101180.00;;;20.60
19644;BMP180;9970;-36.854;174.870;2023-01-30T14:39:32;101181.00;;;20.60
19644;BMP180;9970;-36.854;174.870;2023-01-30T14:41:30;101177.00;;;20.60
19644;BMP180;9970;-36.854;174.870;2023-01-30T14:44:03;101170.00;;;20.60
19644;BMP180;9970;-36.854;174.870;2023-01-30T14:46:43;101171.00;;;20.50
19644;BMP180;9970;-36.854;174.870;2023-01-30T14:49:24;101160.00;;;20.50
19644;BMP180;9970;-36.854;174.870;2023-01-30T14:51:56;101177.00;;;20.50
19644;BMP180;9970;-36.854;174.870;2023-01-30T14:54:30;101165.00;;;20.50
19644;BMP180;9970;-36.854;174.870;2023-01-30T14:57:16;101158.00;;;20.50
19644;BMP180;9970;-36.854;174.870;2023-01-30T15:02:28;101157.00;;;20.50
19644;BMP180;9970;-36.854;174.870;2023-01-30T15:05:17;101148.00;;;20.50
19644;BMP180;9970;-36.854;174.870;2023-01-30T15:08:07;101147.00;;;20.50
19644;BMP180;9970;-36.854;174.870;2023-01-30T15:11:07;101153.00;;;20.50
19644;BMP180;9970;-36.854;174.870;2023-01-30T15:14:10;101147.00;;;20.40
19644;BMP180;9970;-36.854;174.870;2023-01-30T15:33:30;101133.00;;;20.50
19644;BMP180;9970;-36.854;174.870;2023-01-30T15:36:16;101132.00;;;20.50
19644;BMP180;9970;-36.854;174.870;2023-01-30T15:38:38;101141.00;;;20.50
19644;BMP180;9970;-36.854;174.870;2023-01-30T15:41:11;101136.00;;;20.50
19644;BMP180;9970;-36.854;174.870;2023-01-30T15:43:56;101126.00;;;20.50
19644;BMP180;9970;-36.854;174.870;2023-01-30T15:46:34;101137.00;;;20.50
19644;BMP180;9970;-36.854;174.870;2023-01-30T15:52:04;101130.00;;;20.50
19644;BMP180;9970;-36.854;174.870;2023-01-30T15:54:38;101130.00;;;20.50
19644;BMP180;9970;-36.854;174.870;2023-01-30T15:57:14;101139.00;;;20.60
19644;BMP180;9970;-36.854;174.870;2023-01-30T15:59:47;101132.00;;;20.60
19644;BMP180;9970;-36.854;174.870;2023-01-30T16:02:40;101123.00;;;20.60
19644;BMP180;9970;-36.854;174.870;2023-01-30T16:05:14;101141.00;;;20.60
19644;BMP180;9970;-36.854;174.870;2023-01-30T16:07:53;101141.00;;;20.60
19644;BMP180;9970;-36.854;174.870;2023-01-30T16:10:29;101146.00;;;20.60
19644;BMP180;9970;-36.854;174.870;2023-01-30T16:13:03;101137.00;;;20.60
19644;BMP180;9970;-36.854;174.870;2023-01-30T16:15:47;101147.00;;;20.70
19644;BMP180;9970;-36.854;174.870;2023-01-30T16:21:03;101146.00;;;20.60
19644;BMP180;9970;-36.854;174.870;2023-01-30T16:23:41;101149.00;;;20.60
19644;BMP180;9970;-36.854;174.870;2023-01-30T16:26:14;101147.00;;;20.60
19644;BMP180;9970;-36.854;174.870;2023-01-30T16:28:49;101153.00;;;20.60
19644;BMP180;9970;-36.854;174.870;2023-01-30T16:31:22;101165.00;;;20.60
19644;BMP180;9970;-36.854;174.870;2023-01-30T16:33:57;101157.00;;;20.60
19644;BMP180;9970;-36.854;174.870;2023-01-30T16:36:31;101158.00;;;20.60
19644;BMP180;9970;-36.854;174.870;2023-01-30T16:39:23;101156.00;;;20.60
19644;BMP180;9970;-36.854;174.870;2023-01-30T16:41:40;101171.00;;;20.60
19644;BMP180;9970;-36.854;174.870;2023-01-30T16:44:18;101163.00;;;20.60
19644;BMP180;9970;-36.854;174.870;2023-01-30T16:46:54;101164.00;;;20.60
19644;BMP180;9970;-36.854;174.870;2023-01-30T16:49:40;101157.00;;;20.60
19644;BMP180;9970;-36.854;174.870;2023-01-30T16:52:22;101160.00;;;20.50